Time;durP1;ratioP1;P1;durP2;ratioP2;P2;SDS_P1;SDS_P2;PMS_P1;PMS_P2;Temp;Humidity;BMP_temperature;BMP_pressure;BME280_temperature;BME280_humidity;BME280_pressure;Samples;Min_cycle;Max_cycle;Signal;HPM_P1;HPM_P2
2021/09/18 05:58:44;;;;;;;22.25;2.25;;;;;;;;;;10469486;28;20634;-78
2021/09/18 06:03:45;;;;;;;13.17;3.00;;;;;;;;;;10435996;28;20044;-82
2021/09/18 06:08:45;;;;;;;4.90;2.07;;;;;;;;;;10431390;28;20088;-79
2021/09/18 06:13:46;;;;;;;5.85;1.92;;;;;;;;;;10420317;28;20484;-79
2021/09/18 06:18:46;;;;;;;6.03;1.60;;;;;;;;;;10438089;28;20114;-78
2021/09/18 06:23:46;;;;;;;12.90;2.13;;;;;;;;;;10411189;28;20436;-78
2021/09/18 06:28:47;;;;;;;2.15;1.55;;;;;;;;;;10457980;28;20031;-78
2021/09/18 06:33:47;;;;;;;8.77;2.22;;;;;;;;;;10446170;28;20513;-84
2021/09/18 06:38:48;;;;;;;5.18;1.88;;;;;;;;;;10451445;28;20040;-78
2021/09/18 06:43:48;;;;;;;49.80;2.60;;;;;;;;;;10451399;28;20094;-78
2021/09/18 06:48:49;;;;;;;28.38;2.75;;;;;;;;;;10451105;28;20029;-79
2021/09/18 06:53:49;;;;;;;30.87;3.00;;;;;;;;;;10455552;28;20029;-85
2021/09/18 06:58:51;;;;;;;19.45;2.30;;;;;;;;;;10464103;28;20056;-90
2021/09/18 07:03:51;;;;;;;15.52;1.98;;;;;;;;;;10462157;28;20383;-91
2021/09/18 07:08:53;;;;;;;15.53;1.77;;;;;;;;;;10441138;28;20037;-87
2021/09/18 07:13:53;;;;;;;29.58;3.63;;;;;;;;;;10429476;28;20134;-87
2021/09/18 07:18:54;;;;;;;56.03;4.20;;;;;;;;;;10420507;28;20480;-85
2021/09/18 07:23:54;;;;;;;17.13;2.40;;;;;;;;;;10419721;28;20124;-86
2021/09/18 07:28:54;;;;;;;2.67;1.33;;;;;;;;;;10421651;28;20021;-87
2021/09/18 07:33:55;;;;;;;8.07;1.50;;;;;;;;;;10417427;28;20033;-87
2021/09/18 07:38:55;;;;;;;11.97;2.00;;;;;;;;;;10420264;28;20459;-86
2021/09/18 07:44:00;;;;;;;6.77;1.70;;;;;;;;;;10433965;23;20488;-79
2021/09/18 07:49:01;;;;;;;6.25;1.45;;;;;;;;;;10378635;28;20057;-78
2021/09/18 07:54:01;;;;;;;8.37;1.53;;;;;;;;;;10377929;28;20436;-78
2021/09/18 07:59:02;;;;;;;11.07;1.70;;;;;;;;;;10377488;28;20026;-78
2021/09/18 08:04:03;;;;;;;2.80;1.55;;;;;;;;;;10377320;28;20148;-77
2021/09/18 08:09:04;;;;;;;6.75;1.60;;;;;;;;;;10377269;28;20125;-77
2021/09/18 08:14:05;;;;;;;7.47;1.50;;;;;;;;;;10376508;28;20065;-78
2021/09/18 08:19:05;;;;;;;4.97;1.37;;;;;;;;;;10376181;28;20030;-78
2021/09/18 08:24:06;;;;;;;7.47;1.40;;;;;;;;;;10376696;28;20996;-80
2021/09/18 08:29:06;;;;;;;7.50;1.57;;;;;;;;;;10371068;28;20483;-79
2021/09/18 08:34:07;;;;;;;4.30;1.23;;;;;;;;;;10374105;28;20037;-78
2021/09/18 08:39:07;;;;;;;6.65;1.40;;;;;;;;;;10374920;28;20463;-78
2021/09/18 08:44:08;;;;;;;2.33;1.07;;;;;;;;;;10376050;28;20155;-78
2021/09/18 08:49:10;;;;;;;6.57;1.30;;;;;;;;;;10375855;28;20034;-78
2021/09/18 08:54:10;;;;;;;5.85;1.23;;;;;;;;;;10375459;28;20065;-78
2021/09/18 08:59:11;;;;;;;5.30;1.23;;;;;;;;;;10370419;28;20103;-78
2021/09/18 09:04:11;;;;;;;2.50;1.03;;;;;;;;;;10375460;28;20523;-78
2021/09/18 09:09:11;;;;;;;2.13;1.00;;;;;;;;;;10375145;28;20491;-78
2021/09/18 09:14:12;;;;;;;2.73;1.07;;;;;;;;;;10374496;28;20467;-78
2021/09/18 09:19:17;;;;;;;8.27;1.13;;;;;;;;;;10375000;28;20428;-78
2021/09/18 09:24:19;;;;;;;5.47;1.45;;;;;;;;;;10374550;28;20400;-78
2021/09/18 09:29:41;;;;;;;1.65;0.98;;;;;;;;;;10374287;28;20029;-78
2021/09/18 09:34:42;;;;;;;2.67;1.08;;;;;;;;;;10374496;28;20542;-77
2021/09/18 09:39:50;;;;;;;2.83;1.17;;;;;;;;;;10373664;28;20087;-77
2021/09/18 09:44:52;;;;;;;3.45;1.00;;;;;;;;;;10373434;28;20084;-78
2021/09/18 09:49:55;;;;;;;2.47;0.90;;;;;;;;;;10373603;28;20030;-78
2021/09/18 09:55:17;;;;;;;4.20;1.20;;;;;;;;;;10374152;28;20030;-78
2021/09/18 10:00:17;;;;;;;2.55;1.00;;;;;;;;;;10373507;28;20042;-78
2021/09/18 10:05:18;;;;;;;5.22;0.90;;;;;;;;;;10373238;28;20038;-78
2021/09/18 10:10:18;;;;;;;2.88;0.88;;;;;;;;;;10373918;28;20108;-78
2021/09/18 10:15:19;;;;;;;5.57;0.95;;;;;;;;;;10372365;28;20468;-81
2021/09/18 10:25:23;;;;;;;2.33;0.90;;;;;;;;;;10373114;28;20057;-79
2021/09/18 10:30:32;;;;;;;0.80;0.70;;;;;;;;;;10374360;28;20026;-79
2021/09/18 10:35:51;;;;;;;6.25;1.45;;;;;;;;;;10370877;28;20034;-78
2021/09/18 10:40:56;;;;;;;7.60;1.38;;;;;;;;;;10370664;28;20116;-80
2021/09/18 10:45:57;;;;;;;3.55;1.20;;;;;;;;;;10378664;28;20050;-80
2021/09/18 10:50:58;;;;;;;6.03;1.40;;;;;;;;;;10380328;28;20038;-80
2021/09/18 10:56:03;;;;;;;2.88;1.42;;;;;;;;;;10379543;28;20046;-80
2021/09/18 11:01:03;;;;;;;1.52;1.10;;;;;;;;;;10380057;28;20057;-80
2021/09/18 11:06:05;;;;;;;1.90;1.00;;;;;;;;;;10380337;28;20530;-81
2021/09/18 11:11:12;;;;;;;4.55;1.17;;;;;;;;;;10379022;28;20434;-80
2021/09/18 11:16:19;;;;;;;1.70;1.10;;;;;;;;;;10391029;28;20040;-80
2021/09/18 11:21:23;;;;;;;2.53;1.20;;;;;;;;;;10379220;28;20030;-81
2021/09/18 11:26:41;;;;;;;4.25;1.10;;;;;;;;;;10379226;28;20038;-80
2021/09/18 11:32:12;;;;;;;2.95;1.05;;;;;;;;;;10378763;28;20041;-79
2021/09/18 11:37:23;;;;;;;4.45;1.08;;;;;;;;;;10372536;28;20041;-80
2021/09/18 11:42:43;;;;;;;3.35;0.98;;;;;;;;;;10366128;28;20053;-80
2021/09/18 11:47:49;;;;;;;1.08;0.98;;;;;;;;;;10378333;28;20414;-80
2021/09/18 11:52:51;;;;;;;1.60;0.73;;;;;;;;;;10377707;28;20045;-80
2021/09/18 11:58:03;;;;;;;2.05;1.08;;;;;;;;;;10370791;28;20041;-80
2021/09/18 12:03:04;;;;;;;3.15;1.00;;;;;;;;;;10377629;28;20487;-81
2021/09/18 12:08:07;;;;;;;2.25;0.90;;;;;;;;;;10377514;28;20472;-81
2021/09/18 12:13:10;;;;;;;3.92;1.20;;;;;;;;;;10377905;28;20030;-81
2021/09/18 12:18:22;;;;;;;2.00;1.00;;;;;;;;;;10384511;28;20037;-81
2021/09/18 12:23:23;;;;;;;2.53;0.93;;;;;;;;;;10375669;28;20391;-82
2021/09/18 12:28:24;;;;;;;1.27;0.90;;;;;;;;;;10375652;28;20069;-80
2021/09/18 12:33:33;;;;;;;2.72;1.10;;;;;;;;;;10377611;28;20080;-80
2021/09/18 12:38:35;;;;;;;3.53;0.93;;;;;;;;;;10374814;28;20030;-79
2021/09/18 12:43:36;;;;;;;3.85;1.17;;;;;;;;;;10375478;28;20224;-79
2021/09/18 12:48:38;;;;;;;2.75;1.27;;;;;;;;;;10375399;28;20038;-79
2021/09/18 12:53:44;;;;;;;1.58;0.90;;;;;;;;;;10375233;28;20061;-80
2021/09/18 12:59:07;;;;;;;1.33;0.90;;;;;;;;;;10376254;28;20038;-79
2021/09/18 13:04:16;;;;;;;3.17;1.00;;;;;;;;;;10356524;28;20038;-81
2021/09/18 13:09:21;;;;;;;3.60;1.40;;;;;;;;;;10374532;28;20026;-83
2021/09/18 13:14:31;;;;;;;2.03;1.00;;;;;;;;;;10373609;28;20075;-81
2021/09/18 13:19:51;;;;;;;2.38;1.05;;;;;;;;;;10374195;28;20034;-80
2021/09/18 13:24:53;;;;;;;3.53;1.20;;;;;;;;;;10374476;28;20030;-82
2021/09/18 13:29:55;;;;;;;6.53;1.20;;;;;;;;;;10374547;28;20041;-81
2021/09/18 13:34:55;;;;;;;4.15;1.65;;;;;;;;;;10374479;28;20029;-81
2021/09/18 13:39:56;;;;;;;2.55;0.85;;;;;;;;;;10374245;28;20036;-83
2021/09/18 13:44:57;;;;;;;2.90;1.10;;;;;;;;;;10373979;28;20046;-82
2021/09/18 13:49:57;;;;;;;3.78;1.52;;;;;;;;;;10371389;28;20034;-83
2021/09/18 13:54:57;;;;;;;2.83;0.97;;;;;;;;;;10373615;28;20033;-82
2021/09/18 13:59:58;;;;;;;5.70;1.37;;;;;;;;;;10373251;28;20105;-82
2021/09/18 14:04:58;;;;;;;3.23;1.10;;;;;;;;;;10373212;28;20550;-82
2021/09/18 14:09:59;;;;;;;3.97;1.33;;;;;;;;;;10373453;28;20041;-82
2021/09/18 14:14:59;;;;;;;1.67;0.90;;;;;;;;;;10374070;28;20072;-82
2021/09/18 14:20:00;;;;;;;5.03;1.37;;;;;;;;;;10380772;28;20033;-81
2021/09/18 14:25:00;;;;;;;4.10;1.20;;;;;;;;;;10381443;28;20423;-82
2021/09/18 14:30:00;;;;;;;4.07;0.90;;;;;;;;;;10381706;28;20072;-82
2021/09/18 14:35:01;;;;;;;3.43;1.40;;;;;;;;;;10381204;28;20475;-82
2021/09/18 14:40:03;;;;;;;1.63;1.10;;;;;;;;;;10380340;28;20387;-82
2021/09/18 14:45:05;;;;;;;2.13;1.30;;;;;;;;;;10381018;28;20053;-83
2021/09/18 14:50:06;;;;;;;2.00;1.00;;;;;;;;;;10380374;28;20026;-83
2021/09/18 14:55:08;;;;;;;1.83;1.17;;;;;;;;;;10380391;28;20390;-82
2021/09/18 15:00:09;;;;;;;2.90;1.30;;;;;;;;;;10380309;28;20037;-82
2021/09/18 15:05:10;;;;;;;1.70;1.00;;;;;;;;;;10380185;28;20026;-83
2021/09/18 15:10:11;;;;;;;1.38;1.02;;;;;;;;;;10379766;28;20034;-83
2021/09/18 15:15:11;;;;;;;2.00;1.25;;;;;;;;;;10379604;28;20117;-83
2021/09/18 15:20:12;;;;;;;2.97;1.08;;;;;;;;;;10378964;28;20037;-83
2021/09/18 15:25:12;;;;;;;1.23;1.08;;;;;;;;;;10376780;28;20133;-83
2021/09/18 15:30:13;;;;;;;4.20;1.50;;;;;;;;;;10378683;28;20037;-83
2021/09/18 15:35:13;;;;;;;3.72;1.00;;;;;;;;;;10379015;28;20101;-84
2021/09/18 15:40:14;;;;;;;2.90;1.00;;;;;;;;;;10377651;28;20034;-81
2021/09/18 15:45:14;;;;;;;2.78;0.80;;;;;;;;;;10376043;28;20088;-83
2021/09/18 15:50:15;;;;;;;1.63;1.00;;;;;;;;;;10373987;28;20411;-81
2021/09/18 15:55:15;;;;;;;3.55;1.20;;;;;;;;;;10373796;28;20464;-82
2021/09/18 16:00:16;;;;;;;2.03;1.20;;;;;;;;;;10374225;28;20029;-81
2021/09/18 16:05:16;;;;;;;4.95;1.38;;;;;;;;;;10377058;28;20033;-81
2021/09/18 16:10:17;;;;;;;3.77;1.30;;;;;;;;;;10376917;28;20033;-81
2021/09/18 16:15:17;;;;;;;2.77;1.30;;;;;;;;;;10371023;28;20486;-80
2021/09/18 16:20:18;;;;;;;2.53;1.30;;;;;;;;;;10375453;28;20038;-80
2021/09/18 16:25:18;;;;;;;1.88;0.80;;;;;;;;;;10363608;28;20542;-82
2021/09/18 16:30:19;;;;;;;3.73;1.43;;;;;;;;;;10376032;28;20562;-79
2021/09/18 16:35:20;;;;;;;2.08;0.93;;;;;;;;;;10375088;28;20038;-80
2021/09/18 16:40:20;;;;;;;1.60;1.02;;;;;;;;;;10374716;28;20083;-79
2021/09/18 16:45:20;;;;;;;2.83;1.20;;;;;;;;;;10374725;28;20088;-80
2021/09/18 16:50:22;;;;;;;2.95;1.20;;;;;;;;;;10375356;28;20030;-79
2021/09/18 16:55:22;;;;;;;5.07;1.30;;;;;;;;;;10375258;28;20034;-81
2021/09/18 17:00:22;;;;;;;2.70;1.30;;;;;;;;;;10375376;28;20034;-80
2021/09/18 17:05:23;;;;;;;1.50;1.25;;;;;;;;;;10374092;28;20107;-81
2021/09/18 17:10:23;;;;;;;4.38;1.40;;;;;;;;;;10373943;28;20037;-80
2021/09/18 17:15:24;;;;;;;4.40;1.20;;;;;;;;;;10374640;28;20033;-80
2021/09/18 17:20:26;;;;;;;4.22;1.50;;;;;;;;;;10374515;28;20040;-80
2021/09/18 17:25:26;;;;;;;2.72;1.35;;;;;;;;;;10374684;28;20037;-80
2021/09/18 17:30:26;;;;;;;8.00;1.20;;;;;;;;;;10374106;28;20542;-82
2021/09/18 17:35:27;;;;;;;3.25;1.15;;;;;;;;;;10373458;28;20033;-79
2021/09/18 17:40:27;;;;;;;5.03;1.40;;;;;;;;;;10374191;28;20404;-79
2021/09/18 17:45:28;;;;;;;7.38;1.45;;;;;;;;;;10374250;28;20049;-78
2021/09/18 17:50:28;;;;;;;5.97;1.43;;;;;;;;;;10373170;28;20030;-81
2021/09/18 17:55:29;;;;;;;3.57;1.27;;;;;;;;;;10361950;28;20841;-78
2021/09/18 18:00:29;;;;;;;7.32;1.70;;;;;;;;;;10372703;28;20136;-79
2021/09/18 18:05:30;;;;;;;11.30;1.80;;;;;;;;;;10373446;28;20037;-80
2021/09/18 18:10:30;;;;;;;3.28;1.67;;;;;;;;;;10372456;28;20030;-80
2021/09/18 18:15:31;;;;;;;6.97;2.33;;;;;;;;;;10373899;28;20053;-80
2021/09/18 18:20:31;;;;;;;5.07;1.77;;;;;;;;;;10374863;28;20026;-80
2021/09/18 18:25:32;;;;;;;6.33;2.20;;;;;;;;;;10373537;28;20030;-81
2021/09/18 18:30:32;;;;;;;8.93;1.83;;;;;;;;;;10373278;28;20506;-81
2021/09/18 18:35:33;;;;;;;6.13;2.17;;;;;;;;;;10373465;28;20080;-81
2021/09/18 18:40:33;;;;;;;10.15;2.75;;;;;;;;;;10372777;28;20030;-81
2021/09/18 18:45:34;;;;;;;8.05;2.38;;;;;;;;;;10372652;28;20100;-81
2021/09/18 18:50:35;;;;;;;4.90;2.27;;;;;;;;;;10372139;28;20025;-81
2021/09/18 18:55:35;;;;;;;7.90;2.20;;;;;;;;;;10372255;28;20505;-81
2021/09/18 19:00:36;;;;;;;6.15;2.17;;;;;;;;;;10366356;28;20115;-82
2021/09/18 19:05:36;;;;;;;4.87;1.77;;;;;;;;;;10376406;28;20045;-83
2021/09/18 19:10:37;;;;;;;6.00;2.15;;;;;;;;;;10377723;28;20782;-83
2021/09/18 19:15:37;;;;;;;10.10;2.40;;;;;;;;;;10375617;28;20448;-82
2021/09/18 19:20:38;;;;;;;3.95;1.83;;;;;;;;;;10379101;28;20451;-81
2021/09/18 19:25:38;;;;;;;11.00;2.10;;;;;;;;;;10377597;28;20030;-81
2021/09/18 19:30:38;;;;;;;7.07;2.17;;;;;;;;;;10377348;28;20854;-83
2021/09/18 19:35:39;;;;;;;15.83;2.90;;;;;;;;;;10378262;28;20076;-82
2021/09/18 19:40:39;;;;;;;12.18;2.55;;;;;;;;;;10378438;28;20443;-81
2021/09/18 19:45:40;;;;;;;5.57;2.20;;;;;;;;;;10416327;23;20053;-83
2021/09/18 19:50:40;;;;;;;5.13;1.87;;;;;;;;;;10391008;28;20064;-83
2021/09/18 19:55:41;;;;;;;8.20;2.33;;;;;;;;;;10391785;28;20034;-83
2021/09/18 20:00:42;;;;;;;5.20;1.90;;;;;;;;;;10391028;28;20506;-83
2021/09/18 20:05:42;;;;;;;5.20;2.00;;;;;;;;;;10390442;28;20053;-82
2021/09/18 20:10:42;;;;;;;4.47;1.90;;;;;;;;;;10390356;28;20022;-83
2021/09/18 20:15:43;;;;;;;2.87;1.80;;;;;;;;;;10390473;28;20440;-83
2021/09/18 20:20:43;;;;;;;4.73;1.67;;;;;;;;;;10390707;28;20041;-83
2021/09/18 20:25:44;;;;;;;4.30;1.83;;;;;;;;;;10389728;28;20049;-82
2021/09/18 20:30:44;;;;;;;3.63;1.70;;;;;;;;;;10390356;28;20470;-83
2021/09/18 20:35:44;;;;;;;5.32;1.80;;;;;;;;;;10389999;28;20080;-83
2021/09/18 20:40:45;;;;;;;3.47;1.80;;;;;;;;;;10390003;28;20054;-83
2021/09/18 20:45:45;;;;;;;2.42;1.80;;;;;;;;;;10389502;28;20042;-84
2021/09/18 20:50:47;;;;;;;2.57;1.57;;;;;;;;;;10388748;28;20038;-83
2021/09/18 20:55:47;;;;;;;6.57;1.80;;;;;;;;;;10389417;28;20030;-85
2021/09/18 21:00:48;;;;;;;2.33;1.47;;;;;;;;;;10389459;28;20030;-91
2021/09/18 21:05:48;;;;;;;3.43;1.67;;;;;;;;;;10389269;28;20026;-88
2021/09/18 21:10:48;;;;;;;4.27;2.00;;;;;;;;;;10388712;28;20030;-91
2021/09/18 21:15:49;;;;;;;3.13;1.73;;;;;;;;;;10389188;28;20033;-89
2021/09/18 21:20:50;;;;;;;4.82;2.13;;;;;;;;;;10388062;28;20080;-89
2021/09/18 21:25:52;;;;;;;4.03;2.10;;;;;;;;;;10387339;28;20105;-89
2021/09/18 21:30:53;;;;;;;5.65;1.90;;;;;;;;;;10388154;28;20456;-88
2021/09/18 21:35:53;;;;;;;5.10;2.20;;;;;;;;;;10387984;28;20111;-89
2021/09/18 21:40:53;;;;;;;4.80;2.33;;;;;;;;;;10387827;28;20029;-89
2021/09/18 21:45:54;;;;;;;7.03;2.23;;;;;;;;;;10387309;28;20496;-90
2021/09/18 21:50:54;;;;;;;4.60;2.27;;;;;;;;;;10383931;28;20459;-89
2021/09/18 21:55:55;;;;;;;8.30;2.28;;;;;;;;;;10387263;28;20432;-90
2021/09/18 22:00:55;;;;;;;3.87;1.97;;;;;;;;;;10387363;28;20483;-90
2021/09/18 22:05:57;;;;;;;4.25;1.98;;;;;;;;;;10383158;28;20460;-90
2021/09/18 22:10:57;;;;;;;6.72;2.20;;;;;;;;;;10387126;28;20457;-89
2021/09/18 22:15:57;;;;;;;7.43;1.90;;;;;;;;;;10385292;28;20077;-90
2021/09/18 22:21:00;;;;;;;3.87;2.10;;;;;;;;;;10383793;28;20037;-90
2021/09/18 22:26:00;;;;;;;4.68;2.00;;;;;;;;;;10386584;28;20136;-90
2021/09/18 22:31:01;;;;;;;5.00;2.13;;;;;;;;;;10381220;28;20061;-90
2021/09/18 22:36:01;;;;;;;3.38;1.75;;;;;;;;;;10381170;28;20480;-89
2021/09/18 22:41:09;;;;;;;2.60;2.03;;;;;;;;;;10378215;28;20038;-86
2021/09/18 22:46:10;;;;;;;6.20;2.65;;;;;;;;;;10384877;28;20491;-89
2021/09/18 22:51:10;;;;;;;3.67;1.75;;;;;;;;;;10394249;28;20033;-89
2021/09/18 22:56:11;;;;;;;3.60;2.00;;;;;;;;;;10393394;28;20038;-87
2021/09/18 23:01:11;;;;;;;4.30;2.10;;;;;;;;;;10393843;28;20034;-89
2021/09/18 23:06:12;;;;;;;2.20;1.83;;;;;;;;;;10393571;28;20364;-89
2021/09/18 23:11:12;;;;;;;2.58;1.90;;;;;;;;;;10392880;28;20060;-88
2021/09/18 23:16:13;;;;;;;5.43;2.00;;;;;;;;;;10390321;28;20387;-89
2021/09/18 23:21:14;;;;;;;5.80;2.40;;;;;;;;;;10408322;28;20465;-89
2021/09/18 23:26:14;;;;;;;4.90;1.95;;;;;;;;;;10378216;28;20042;-89
2021/09/18 23:31:15;;;;;;;3.40;1.83;;;;;;;;;;10392087;28;20034;-87
2021/09/18 23:36:15;;;;;;;2.72;1.77;;;;;;;;;;10392401;28;20041;-88
2021/09/18 23:41:15;;;;;;;3.00;1.90;;;;;;;;;;10388643;28;20026;-89
2021/09/18 23:46:16;;;;;;;2.42;1.85;;;;;;;;;;10391917;28;20029;-88
2021/09/18 23:51:17;;;;;;;3.80;1.80;;;;;;;;;;10391539;28;20061;-88
2021/09/18 23:56:18;;;;;;;4.28;1.80;;;;;;;;;;10391521;28;20037;-88
